sensor_id;sensor_type;location;lat;lon;timestamp;P1;durP1;ratioP1;P2;durP2;ratioP2
20956;SDS011;10637;47.970;7.830;2023-05-29T00:03:39;18.40;;;7.57;;
20956;SDS011;10637;47.970;7.830;2023-05-29T00:08:41;16.33;;;8.57;;
20956;SDS011;10637;47.970;7.830;2023-05-29T00:13:43;16.03;;;7.70;;
20956;SDS011;10637;47.970;7.830;2023-05-29T00:18:45;14.50;;;6.90;;
20956;SDS011;10637;47.970;7.830;2023-05-29T00:23:47;15.50;;;7.63;;
20956;SDS011;10637;47.970;7.830;2023-05-29T00:28:49;17.60;;;7.73;;
20956;SDS011;10637;47.970;7.830;2023-05-29T00:33:50;15.63;;;7.27;;
20956;SDS011;10637;47.970;7.830;2023-05-29T00:38:52;18.40;;;7.60;;
20956;SDS011;10637;47.970;7.830;2023-05-29T00:43:54;18.20;;;8.00;;
20956;SDS011;10637;47.970;7.830;2023-05-29T00:48:57;17.60;;;8.00;;
20956;SDS011;10637;47.970;7.830;2023-05-29T00:54:00;15.53;;;8.13;;
20956;SDS011;10637;47.970;7.830;2023-05-29T00:59:02;15.73;;;7.50;;
20956;SDS011;10637;47.970;7.830;2023-05-29T01:04:05;15.03;;;7.50;;
20956;SDS011;10637;47.970;7.830;2023-05-29T01:09:10;18.67;;;7.57;;
20956;SDS011;10637;47.970;7.830;2023-05-29T01:14:16;17.43;;;7.57;;
20956;SDS011;10637;47.970;7.830;2023-05-29T01:24:37;14.33;;;7.43;;
20956;SDS011;10637;47.970;7.830;2023-05-29T01:29:47;18.27;;;8.13;;
20956;SDS011;10637;47.970;7.830;2023-05-29T01:34:51;16.43;;;7.17;;
20956;SDS011;10637;47.970;7.830;2023-05-29T01:39:53;15.47;;;8.07;;
20956;SDS011;10637;47.970;7.830;2023-05-29T01:44:55;15.60;;;8.13;;
20956;SDS011;10637;47.970;7.830;2023-05-29T01:49:59;15.97;;;8.00;;
20956;SDS011;10637;47.970;7.830;2023-05-29T01:55:01;17.70;;;8.10;;
20956;SDS011;10637;47.970;7.830;2023-05-29T02:00:03;17.57;;;8.00;;
20956;SDS011;10637;47.970;7.830;2023-05-29T02:05:10;15.43;;;7.47;;
20956;SDS011;10637;47.970;7.830;2023-05-29T02:10:12;14.07;;;7.47;;
20956;SDS011;10637;47.970;7.830;2023-05-29T02:15:14;15.33;;;7.70;;
20956;SDS011;10637;47.970;7.830;2023-05-29T02:20:16;17.07;;;7.53;;
20956;SDS011;10637;47.970;7.830;2023-05-29T02:25:19;17.47;;;7.87;;
20956;SDS011;10637;47.970;7.830;2023-05-29T02:30:20;16.27;;;8.13;;
20956;SDS011;10637;47.970;7.830;2023-05-29T02:35:22;14.53;;;8.00;;
20956;SDS011;10637;47.970;7.830;2023-05-29T02:40:24;16.77;;;8.03;;
20956;SDS011;10637;47.970;7.830;2023-05-29T02:45:26;18.33;;;8.37;;
20956;SDS011;10637;47.970;7.830;2023-05-29T02:50:28;17.50;;;8.50;;
20956;SDS011;10637;47.970;7.830;2023-05-29T02:55:29;16.47;;;8.20;;
20956;SDS011;10637;47.970;7.830;2023-05-29T03:00:33;17.13;;;8.60;;
20956;SDS011;10637;47.970;7.830;2023-05-29T03:05:35;15.53;;;7.93;;
20956;SDS011;10637;47.970;7.830;2023-05-29T03:10:37;14.60;;;7.30;;
20956;SDS011;10637;47.970;7.830;2023-05-29T03:15:39;16.50;;;7.77;;
20956;SDS011;10637;47.970;7.830;2023-05-29T03:20:41;16.20;;;8.40;;
20956;SDS011;10637;47.970;7.830;2023-05-29T03:25:43;16.90;;;7.97;;
20956;SDS011;10637;47.970;7.830;2023-05-29T03:30:45;17.60;;;8.20;;
20956;SDS011;10637;47.970;7.830;2023-05-29T03:35:46;14.70;;;8.30;;
20956;SDS011;10637;47.970;7.830;2023-05-29T03:40:48;16.87;;;8.67;;
20956;SDS011;10637;47.970;7.830;2023-05-29T03:45:50;17.73;;;7.73;;
20956;SDS011;10637;47.970;7.830;2023-05-29T03:50:52;16.90;;;8.57;;
20956;SDS011;10637;47.970;7.830;2023-05-29T03:55:54;17.80;;;8.70;;
20956;SDS011;10637;47.970;7.830;2023-05-29T04:00:56;15.40;;;8.03;;
20956;SDS011;10637;47.970;7.830;2023-05-29T04:05:58;16.63;;;8.17;;
20956;SDS011;10637;47.970;7.830;2023-05-29T04:11:00;14.97;;;7.87;;
20956;SDS011;10637;47.970;7.830;2023-05-29T04:16:02;17.93;;;8.60;;
20956;SDS011;10637;47.970;7.830;2023-05-29T04:21:04;17.60;;;8.53;;
20956;SDS011;10637;47.970;7.830;2023-05-29T04:26:06;15.43;;;8.03;;
20956;SDS011;10637;47.970;7.830;2023-05-29T04:31:08;15.27;;;8.70;;
20956;SDS011;10637;47.970;7.830;2023-05-29T04:36:15;18.27;;;8.80;;
20956;SDS011;10637;47.970;7.830;2023-05-29T04:41:17;19.10;;;8.50;;
20956;SDS011;10637;47.970;7.830;2023-05-29T04:46:19;16.67;;;8.30;;
20956;SDS011;10637;47.970;7.830;2023-05-29T04:51:21;16.10;;;8.53;;
20956;SDS011;10637;47.970;7.830;2023-05-29T04:56:23;17.37;;;9.63;;
20956;SDS011;10637;47.970;7.830;2023-05-29T05:01:24;19.77;;;9.77;;
20956;SDS011;10637;47.970;7.830;2023-05-29T05:06:26;22.10;;;9.33;;
20956;SDS011;10637;47.970;7.830;2023-05-29T05:11:28;16.40;;;8.73;;
20956;SDS011;10637;47.970;7.830;2023-05-29T05:16:30;22.83;;;9.87;;
20956;SDS011;10637;47.970;7.830;2023-05-29T05:21:32;20.30;;;9.63;;
20956;SDS011;10637;47.970;7.830;2023-05-29T05:26:34;19.97;;;10.03;;
20956;SDS011;10637;47.970;7.830;2023-05-29T05:31:36;20.10;;;9.97;;
20956;SDS011;10637;47.970;7.830;2023-05-29T05:36:38;19.63;;;10.43;;
20956;SDS011;10637;47.970;7.830;2023-05-29T05:41:40;20.07;;;10.63;;
20956;SDS011;10637;47.970;7.830;2023-05-29T05:46:41;21.97;;;10.87;;
20956;SDS011;10637;47.970;7.830;2023-05-29T05:51:43;22.93;;;10.43;;
20956;SDS011;10637;47.970;7.830;2023-05-29T05:56:45;21.10;;;10.47;;
20956;SDS011;10637;47.970;7.830;2023-05-29T06:01:47;18.63;;;9.63;;
20956;SDS011;10637;47.970;7.830;2023-05-29T06:06:49;18.30;;;9.63;;
20956;SDS011;10637;47.970;7.830;2023-05-29T06:11:50;17.60;;;8.83;;
20956;SDS011;10637;47.970;7.830;2023-05-29T06:16:52;20.47;;;9.40;;
20956;SDS011;10637;47.970;7.830;2023-05-29T06:21:54;17.07;;;8.73;;
20956;SDS011;10637;47.970;7.830;2023-05-29T06:26:56;16.73;;;9.47;;
20956;SDS011;10637;47.970;7.830;2023-05-29T06:31:58;21.20;;;10.03;;
20956;SDS011;10637;47.970;7.830;2023-05-29T06:37:00;17.17;;;9.57;;
20956;SDS011;10637;47.970;7.830;2023-05-29T06:42:02;16.33;;;8.67;;
20956;SDS011;10637;47.970;7.830;2023-05-29T06:47:05;20.03;;;10.07;;
20956;SDS011;10637;47.970;7.830;2023-05-29T06:52:07;16.73;;;8.90;;
20956;SDS011;10637;47.970;7.830;2023-05-29T06:57:08;17.00;;;8.23;;
20956;SDS011;10637;47.970;7.830;2023-05-29T07:02:13;17.70;;;8.70;;
20956;SDS011;10637;47.970;7.830;2023-05-29T07:07:15;19.00;;;8.87;;
20956;SDS011;10637;47.970;7.830;2023-05-29T07:12:18;16.97;;;8.97;;
20956;SDS011;10637;47.970;7.830;2023-05-29T07:17:22;22.13;;;8.87;;
20956;SDS011;10637;47.970;7.830;2023-05-29T07:22:24;18.20;;;7.87;;
20956;SDS011;10637;47.970;7.830;2023-05-29T07:27:26;17.13;;;8.03;;
20956;SDS011;10637;47.970;7.830;2023-05-29T07:32:29;17.80;;;7.80;;
20956;SDS011;10637;47.970;7.830;2023-05-29T07:37:32;15.63;;;8.13;;
20956;SDS011;10637;47.970;7.830;2023-05-29T07:42:35;20.10;;;8.07;;
20956;SDS011;10637;47.970;7.830;2023-05-29T07:47:37;15.43;;;8.30;;
20956;SDS011;10637;47.970;7.830;2023-05-29T07:52:39;17.47;;;8.20;;
20956;SDS011;10637;47.970;7.830;2023-05-29T07:57:41;15.63;;;8.17;;
20956;SDS011;10637;47.970;7.830;2023-05-29T08:02:43;19.00;;;7.57;;
20956;SDS011;10637;47.970;7.830;2023-05-29T08:07:45;13.87;;;8.03;;
20956;SDS011;10637;47.970;7.830;2023-05-29T08:12:49;16.83;;;7.43;;
20956;SDS011;10637;47.970;7.830;2023-05-29T08:17:51;16.23;;;7.80;;
20956;SDS011;10637;47.970;7.830;2023-05-29T08:22:53;15.57;;;7.33;;
20956;SDS011;10637;47.970;7.830;2023-05-29T08:27:55;16.43;;;7.33;;
20956;SDS011;10637;47.970;7.830;2023-05-29T08:32:57;14.13;;;7.03;;
20956;SDS011;10637;47.970;7.830;2023-05-29T08:37:59;15.33;;;6.43;;
20956;SDS011;10637;47.970;7.830;2023-05-29T08:43:22;13.77;;;6.63;;
20956;SDS011;10637;47.970;7.830;2023-05-29T08:48:25;15.00;;;6.30;;
20956;SDS011;10637;47.970;7.830;2023-05-29T08:53:29;13.83;;;6.93;;
20956;SDS011;10637;47.970;7.830;2023-05-29T08:58:32;14.60;;;6.93;;
20956;SDS011;10637;47.970;7.830;2023-05-29T09:03:35;15.00;;;6.57;;
20956;SDS011;10637;47.970;7.830;2023-05-29T09:08:39;14.20;;;6.80;;
20956;SDS011;10637;47.970;7.830;2023-05-29T09:13:41;15.80;;;6.27;;
20956;SDS011;10637;47.970;7.830;2023-05-29T09:18:43;12.67;;;5.70;;
20956;SDS011;10637;47.970;7.830;2023-05-29T09:23:49;14.10;;;6.50;;
20956;SDS011;10637;47.970;7.830;2023-05-29T09:28:53;13.50;;;5.90;;
20956;SDS011;10637;47.970;7.830;2023-05-29T09:33:57;14.80;;;6.03;;
20956;SDS011;10637;47.970;7.830;2023-05-29T09:39:03;12.00;;;5.73;;
20956;SDS011;10637;47.970;7.830;2023-05-29T09:44:17;15.70;;;5.67;;
20956;SDS011;10637;47.970;7.830;2023-05-29T09:49:22;15.77;;;6.07;;
20956;SDS011;10637;47.970;7.830;2023-05-29T09:54:24;12.63;;;5.97;;
20956;SDS011;10637;47.970;7.830;2023-05-29T09:59:30;13.93;;;6.27;;
20956;SDS011;10637;47.970;7.830;2023-05-29T10:04:33;14.10;;;6.07;;
20956;SDS011;10637;47.970;7.830;2023-05-29T10:09:38;13.30;;;5.80;;
20956;SDS011;10637;47.970;7.830;2023-05-29T10:14:44;13.07;;;5.87;;
20956;SDS011;10637;47.970;7.830;2023-05-29T10:19:48;15.53;;;9.73;;
20956;SDS011;10637;47.970;7.830;2023-05-29T10:24:51;14.03;;;6.50;;
20956;SDS011;10637;47.970;7.830;2023-05-29T10:30:07;11.43;;;5.20;;
20956;SDS011;10637;47.970;7.830;2023-05-29T10:35:35;12.87;;;5.80;;
20956;SDS011;10637;47.970;7.830;2023-05-29T10:40:50;12.30;;;5.50;;
20956;SDS011;10637;47.970;7.830;2023-05-29T10:45:52;14.17;;;6.07;;
20956;SDS011;10637;47.970;7.830;2023-05-29T10:50:54;13.83;;;5.33;;
20956;SDS011;10637;47.970;7.830;2023-05-29T10:55:58;14.10;;;5.40;;
20956;SDS011;10637;47.970;7.830;2023-05-29T11:01:02;12.90;;;5.20;;
20956;SDS011;10637;47.970;7.830;2023-05-29T11:06:05;13.33;;;5.27;;
20956;SDS011;10637;47.970;7.830;2023-05-29T11:11:15;12.63;;;5.13;;
20956;SDS011;10637;47.970;7.830;2023-05-29T11:21:34;13.60;;;5.77;;
20956;SDS011;10637;47.970;7.830;2023-05-29T11:26:40;14.52;;;5.25;;
20956;SDS011;10637;47.970;7.830;2023-05-29T11:31:46;10.50;;;5.00;;
20956;SDS011;10637;47.970;7.830;2023-05-29T11:36:51;13.35;;;5.10;;
20956;SDS011;10637;47.970;7.830;2023-05-29T11:41:53;11.32;;;5.10;;
20956;SDS011;10637;47.970;7.830;2023-05-29T11:47:00;13.38;;;5.30;;
20956;SDS011;10637;47.970;7.830;2023-05-29T11:57:20;12.90;;;5.10;;
20956;SDS011;10637;47.970;7.830;2023-05-29T12:02:22;12.02;;;5.60;;
20956;SDS011;10637;47.970;7.830;2023-05-29T12:07:26;11.35;;;5.20;;
20956;SDS011;10637;47.970;7.830;2023-05-29T12:12:28;11.15;;;5.07;;
20956;SDS011;10637;47.970;7.830;2023-05-29T12:17:30;12.15;;;5.65;;
20956;SDS011;10637;47.970;7.830;2023-05-29T12:22:36;10.77;;;4.80;;
20956;SDS011;10637;47.970;7.830;2023-05-29T12:27:40;13.57;;;5.68;;
20956;SDS011;10637;47.970;7.830;2023-05-29T12:32:44;10.93;;;5.07;;
20956;SDS011;10637;47.970;7.830;2023-05-29T12:37:54;15.00;;;5.68;;
20956;SDS011;10637;47.970;7.830;2023-05-29T12:42:57;12.90;;;6.05;;
20956;SDS011;10637;47.970;7.830;2023-05-29T12:48:06;11.68;;;5.40;;
20956;SDS011;10637;47.970;7.830;2023-05-29T12:53:09;14.05;;;6.05;;
20956;SDS011;10637;47.970;7.830;2023-05-29T12:58:14;13.30;;;6.07;;
20956;SDS011;10637;47.970;7.830;2023-05-29T13:03:20;11.85;;;6.35;;
20956;SDS011;10637;47.970;7.830;2023-05-29T13:08:22;11.05;;;5.82;;
20956;SDS011;10637;47.970;7.830;2023-05-29T13:13:24;12.43;;;6.10;;
20956;SDS011;10637;47.970;7.830;2023-05-29T13:18:25;12.40;;;5.90;;
20956;SDS011;10637;47.970;7.830;2023-05-29T13:23:27;11.05;;;5.82;;
20956;SDS011;10637;47.970;7.830;2023-05-29T13:28:29;12.13;;;5.72;;
20956;SDS011;10637;47.970;7.830;2023-05-29T13:33:31;11.50;;;5.53;;
20956;SDS011;10637;47.970;7.830;2023-05-29T13:38:33;10.98;;;5.60;;
20956;SDS011;10637;47.970;7.830;2023-05-29T13:43:34;11.57;;;5.45;;
20956;SDS011;10637;47.970;7.830;2023-05-29T13:48:45;12.52;;;5.65;;
20956;SDS011;10637;47.970;7.830;2023-05-29T13:53:47;11.63;;;5.78;;
20956;SDS011;10637;47.970;7.830;2023-05-29T13:58:48;14.55;;;5.90;;
20956;SDS011;10637;47.970;7.830;2023-05-29T14:03:51;12.30;;;5.68;;
20956;SDS011;10637;47.970;7.830;2023-05-29T14:08:53;10.60;;;5.03;;
20956;SDS011;10637;47.970;7.830;2023-05-29T14:13:56;12.05;;;5.18;;
20956;SDS011;10637;47.970;7.830;2023-05-29T14:18:58;11.77;;;5.43;;
20956;SDS011;10637;47.970;7.830;2023-05-29T14:24:01;12.43;;;5.53;;
20956;SDS011;10637;47.970;7.830;2023-05-29T14:29:03;12.00;;;5.80;;
20956;SDS011;10637;47.970;7.830;2023-05-29T14:34:15;10.95;;;5.82;;
20956;SDS011;10637;47.970;7.830;2023-05-29T14:39:17;13.73;;;6.13;;
20956;SDS011;10637;47.970;7.830;2023-05-29T14:44:19;14.15;;;5.63;;
20956;SDS011;10637;47.970;7.830;2023-05-29T14:49:21;12.23;;;5.90;;
20956;SDS011;10637;47.970;7.830;2023-05-29T14:54:24;11.40;;;5.70;;
20956;SDS011;10637;47.970;7.830;2023-05-29T14:59:26;14.00;;;5.82;;
20956;SDS011;10637;47.970;7.830;2023-05-29T15:04:28;12.68;;;5.88;;
20956;SDS011;10637;47.970;7.830;2023-05-29T15:09:30;11.32;;;5.65;;
20956;SDS011;10637;47.970;7.830;2023-05-29T15:14:31;12.68;;;5.47;;
20956;SDS011;10637;47.970;7.830;2023-05-29T15:19:33;12.43;;;5.53;;
20956;SDS011;10637;47.970;7.830;2023-05-29T15:24:35;12.63;;;5.60;;
20956;SDS011;10637;47.970;7.830;2023-05-29T15:29:41;13.25;;;5.72;;
20956;SDS011;10637;47.970;7.830;2023-05-29T15:34:43;11.25;;;5.75;;
20956;SDS011;10637;47.970;7.830;2023-05-29T15:39:44;10.68;;;5.28;;
20956;SDS011;10637;47.970;7.830;2023-05-29T15:44:46;11.80;;;5.18;;
20956;SDS011;10637;47.970;7.830;2023-05-29T15:49:48;11.15;;;5.28;;
20956;SDS011;10637;47.970;7.830;2023-05-29T15:54:50;11.65;;;5.40;;
20956;SDS011;10637;47.970;7.830;2023-05-29T15:59:52;12.23;;;5.55;;
20956;SDS011;10637;47.970;7.830;2023-05-29T16:04:54;9.98;;;4.88;;
20956;SDS011;10637;47.970;7.830;2023-05-29T16:10:07;10.93;;;5.47;;
20956;SDS011;10637;47.970;7.830;2023-05-29T16:15:09;13.00;;;5.80;;
20956;SDS011;10637;47.970;7.830;2023-05-29T16:20:11;14.00;;;5.60;;
20956;SDS011;10637;47.970;7.830;2023-05-29T16:25:14;11.75;;;5.20;;
20956;SDS011;10637;47.970;7.830;2023-05-29T16:30:16;11.77;;;5.60;;
20956;SDS011;10637;47.970;7.830;2023-05-29T16:35:17;11.27;;;4.97;;
20956;SDS011;10637;47.970;7.830;2023-05-29T16:40:19;11.93;;;5.75;;
20956;SDS011;10637;47.970;7.830;2023-05-29T16:45:24;11.00;;;5.00;;
20956;SDS011;10637;47.970;7.830;2023-05-29T16:50:26;10.77;;;5.50;;
20956;SDS011;10637;47.970;7.830;2023-05-29T16:55:27;11.70;;;5.90;;
20956;SDS011;10637;47.970;7.830;2023-05-29T17:00:29;12.40;;;5.47;;
20956;SDS011;10637;47.970;7.830;2023-05-29T17:05:31;10.53;;;5.10;;
20956;SDS011;10637;47.970;7.830;2023-05-29T17:10:33;14.65;;;5.45;;
20956;SDS011;10637;47.970;7.830;2023-05-29T17:15:35;12.05;;;5.53;;
20956;SDS011;10637;47.970;7.830;2023-05-29T17:20:36;11.00;;;5.15;;
20956;SDS011;10637;47.970;7.830;2023-05-29T17:25:39;11.13;;;5.18;;
20956;SDS011;10637;47.970;7.830;2023-05-29T17:30:40;14.23;;;5.60;;
20956;SDS011;10637;47.970;7.830;2023-05-29T17:35:42;10.73;;;5.57;;
20956;SDS011;10637;47.970;7.830;2023-05-29T17:40:44;11.83;;;5.70;;
20956;SDS011;10637;47.970;7.830;2023-05-29T17:45:46;13.70;;;5.30;;
20956;SDS011;10637;47.970;7.830;2023-05-29T17:50:53;12.27;;;5.30;;
20956;SDS011;10637;47.970;7.830;2023-05-29T17:55:55;13.90;;;5.40;;
20956;SDS011;10637;47.970;7.830;2023-05-29T18:00:58;12.77;;;4.77;;
20956;SDS011;10637;47.970;7.830;2023-05-29T18:06:00;10.67;;;4.90;;
20956;SDS011;10637;47.970;7.830;2023-05-29T18:11:01;11.30;;;5.50;;
20956;SDS011;10637;47.970;7.830;2023-05-29T18:16:03;10.83;;;5.20;;
20956;SDS011;10637;47.970;7.830;2023-05-29T18:21:10;11.60;;;5.77;;
20956;SDS011;10637;47.970;7.830;2023-05-29T18:26:12;12.00;;;5.40;;
20956;SDS011;10637;47.970;7.830;2023-05-29T18:31:14;11.50;;;5.10;;
20956;SDS011;10637;47.970;7.830;2023-05-29T18:36:17;11.43;;;5.43;;
20956;SDS011;10637;47.970;7.830;2023-05-29T18:41:20;11.23;;;5.20;;
20956;SDS011;10637;47.970;7.830;2023-05-29T18:46:22;13.33;;;5.00;;
20956;SDS011;10637;47.970;7.830;2023-05-29T18:51:24;9.70;;;4.80;;
20956;SDS011;10637;47.970;7.830;2023-05-29T18:56:26;10.67;;;5.33;;
20956;SDS011;10637;47.970;7.830;2023-05-29T19:01:28;11.50;;;5.77;;
20956;SDS011;10637;47.970;7.830;2023-05-29T19:06:33;13.93;;;6.37;;
20956;SDS011;10637;47.970;7.830;2023-05-29T19:11:34;12.17;;;5.73;;
20956;SDS011;10637;47.970;7.830;2023-05-29T19:16:36;10.60;;;5.27;;
20956;SDS011;10637;47.970;7.830;2023-05-29T19:21:38;13.37;;;5.80;;
20956;SDS011;10637;47.970;7.830;2023-05-29T19:26:41;11.67;;;5.37;;
20956;SDS011;10637;47.970;7.830;2023-05-29T19:31:45;12.60;;;5.27;;
20956;SDS011;10637;47.970;7.830;2023-05-29T19:36:48;12.67;;;5.93;;
20956;SDS011;10637;47.970;7.830;2023-05-29T19:41:50;12.40;;;5.77;;
20956;SDS011;10637;47.970;7.830;2023-05-29T19:46:52;12.83;;;5.73;;
20956;SDS011;10637;47.970;7.830;2023-05-29T19:51:54;12.73;;;5.43;;
20956;SDS011;10637;47.970;7.830;2023-05-29T19:57:00;11.60;;;5.63;;
20956;SDS011;10637;47.970;7.830;2023-05-29T20:02:02;12.43;;;5.97;;
20956;SDS011;10637;47.970;7.830;2023-05-29T20:07:05;12.07;;;5.83;;
20956;SDS011;10637;47.970;7.830;2023-05-29T20:12:08;13.07;;;5.50;;
20956;SDS011;10637;47.970;7.830;2023-05-29T20:17:09;11.43;;;6.00;;
20956;SDS011;10637;47.970;7.830;2023-05-29T20:22:11;13.00;;;5.90;;
20956;SDS011;10637;47.970;7.830;2023-05-29T20:27:13;11.87;;;5.80;;
20956;SDS011;10637;47.970;7.830;2023-05-29T20:32:15;12.43;;;6.03;;
20956;SDS011;10637;47.970;7.830;2023-05-29T20:37:17;13.90;;;6.47;;
20956;SDS011;10637;47.970;7.830;2023-05-29T20:42:19;11.93;;;6.10;;
20956;SDS011;10637;47.970;7.830;2023-05-29T20:47:23;10.97;;;5.73;;
20956;SDS011;10637;47.970;7.830;2023-05-29T20:52:24;11.57;;;6.13;;
20956;SDS011;10637;47.970;7.830;2023-05-29T20:57:27;12.03;;;6.00;;
20956;SDS011;10637;47.970;7.830;2023-05-29T21:02:30;12.40;;;5.70;;
20956;SDS011;10637;47.970;7.830;2023-05-29T21:07:32;13.57;;;6.70;;
20956;SDS011;10637;47.970;7.830;2023-05-29T21:12:37;13.50;;;6.43;;
20956;SDS011;10637;47.970;7.830;2023-05-29T21:17:39;12.63;;;6.67;;
20956;SDS011;10637;47.970;7.830;2023-05-29T21:22:41;14.97;;;6.47;;
20956;SDS011;10637;47.970;7.830;2023-05-29T21:27:43;13.73;;;6.73;;
20956;SDS011;10637;47.970;7.830;2023-05-29T21:32:45;13.37;;;6.10;;
20956;SDS011;10637;47.970;7.830;2023-05-29T21:37:47;12.93;;;7.00;;
20956;SDS011;10637;47.970;7.830;2023-05-29T21:42:49;16.17;;;7.00;;
20956;SDS011;10637;47.970;7.830;2023-05-29T21:47:52;14.97;;;6.70;;
20956;SDS011;10637;47.970;7.830;2023-05-29T21:52:55;14.43;;;6.87;;
20956;SDS011;10637;47.970;7.830;2023-05-29T21:57:56;13.00;;;7.10;;
20956;SDS011;10637;47.970;7.830;2023-05-29T22:02:58;11.37;;;6.13;;
20956;SDS011;10637;47.970;7.830;2023-05-29T22:08:00;11.70;;;6.20;;
20956;SDS011;10637;47.970;7.830;2023-05-29T22:13:02;11.70;;;6.17;;
20956;SDS011;10637;47.970;7.830;2023-05-29T22:18:04;13.63;;;6.60;;
20956;SDS011;10637;47.970;7.830;2023-05-29T22:23:06;15.53;;;6.60;;
20956;SDS011;10637;47.970;7.830;2023-05-29T22:28:17;12.07;;;6.20;;
20956;SDS011;10637;47.970;7.830;2023-05-29T22:33:19;15.27;;;6.03;;
20956;SDS011;10637;47.970;7.830;2023-05-29T22:38:22;13.30;;;6.20;;
20956;SDS011;10637;47.970;7.830;2023-05-29T22:43:23;12.50;;;6.10;;
20956;SDS011;10637;47.970;7.830;2023-05-29T22:48:25;12.13;;;6.10;;
20956;SDS011;10637;47.970;7.830;2023-05-29T22:53:27;13.50;;;6.57;;
20956;SDS011;10637;47.970;7.830;2023-05-29T22:58:28;12.83;;;6.07;;
20956;SDS011;10637;47.970;7.830;2023-05-29T23:03:30;12.13;;;5.77;;
20956;SDS011;10637;47.970;7.830;2023-05-29T23:08:32;15.00;;;7.23;;
20956;SDS011;10637;47.970;7.830;2023-05-29T23:13:34;11.47;;;5.63;;
20956;SDS011;10637;47.970;7.830;2023-05-29T23:18:36;13.57;;;5.90;;
20956;SDS011;10637;47.970;7.830;2023-05-29T23:23:38;15.90;;;6.40;;
20956;SDS011;10637;47.970;7.830;2023-05-29T23:28:39;11.90;;;5.77;;
20956;SDS011;10637;47.970;7.830;2023-05-29T23:33:42;10.70;;;5.37;;
20956;SDS011;10637;47.970;7.830;2023-05-29T23:38:44;12.10;;;6.10;;
20956;SDS011;10637;47.970;7.830;2023-05-29T23:43:46;11.60;;;6.13;;
20956;SDS011;10637;47.970;7.830;2023-05-29T23:48:48;11.10;;;5.80;;
20956;SDS011;10637;47.970;7.830;2023-05-29T23:53:50;12.03;;;6.00;;
20956;SDS011;10637;47.970;7.830;2023-05-29T23:58:52;13.87;;;6.53;;
